CST,Max TemperatureF,Mean TemperatureF,Min TemperatureF,Max Dew PointF,MeanDew PointF,Min DewpointF,Max Humidity, Mean Humidity, Min Humidity, Max Sea Level PressureIn, Mean Sea Level PressureIn, Min Sea Level PressureIn, Max VisibilityMiles, Mean VisibilityMiles, Min VisibilityMiles, Max Wind SpeedMPH, Mean Wind SpeedMPH, Max Gust SpeedMPH,PrecipitationIn, CloudCover, Events, WindDirDegrees
2010-11-1,48,38,28,34,28,21,86,67,46,30.47,30.42,30.33,10,10,8,13,3,,0.00,2,,242
2010-11-2,50,40,30,34,30,25,80,65,47,30.48,30.41,30.26,10,10,5,12,5,17,0.00,0,,231
2010-11-3,59,49,39,37,31,28,75,54,36,30.15,29.90,29.74,10,10,10,15,11,20,0.00,4,,264
2010-11-4,44,40,35,30,28,21,75,63,46,30.00,29.86,29.80,10,10,7,21,7,30,0.00,5,,349
2010-11-5,35,32,30,18,15,12,60,49,41,30.10,30.03,30.00,10,10,10,20,11,28,0.00,7,,360
2010-11-6,46,34,21,25,18,12,80,54,37,30.27,30.21,30.15,10,10,10,18,6,25,0.00,1,,241
2010-11-7,51,43,35,32,26,19,75,53,41,30.17,30.09,30.03,10,10,7,14,8,18,0.00,0,,217
2010-11-8,53,42,30,45,35,25,87,78,62,30.02,29.96,29.90,10,5,0,14,3,,0.00,2,,117
2010-11-9,53,48,44,43,40,37,87,73,58,30.07,30.01,29.93,10,8,5,13,7,,0.00,0,,117
2010-11-10,53,48,44,41,39,37,81,68,58,30.14,30.11,30.08,10,8,3,15,8,,0.00,0,,141
2010-11-11,60,54,48,46,41,30,82,63,34,30.36,30.22,30.14,10,8,4,18,11,26,0.00,2,,224
2010-11-12,42,38,33,32,29,25,75,65,57,30.47,30.42,30.38,10,10,10,12,3,,0.00,7,,6
2010-11-13,48,42,37,43,36,28,87,76,57,30.33,30.07,29.73,10,9,2,28,16,36,0.26,8,,73
2010-11-14,39,36,33,34,29,27,81,73,61,29.70,29.64,29.61,10,10,5,15,12,25,0.01,8,,241
2010-11-15,42,36,30,30,27,25,80,72,61,29.83,29.79,29.73,10,9,7,10,6,,0.00,6,,237
2010-11-16,46,37,28,39,32,23,87,80,71,29.79,29.75,29.69,7,3,0,7,2,,0.00,7,,75
2010-11-17,42,38,33,36,30,23,87,70,53,30.12,29.93,29.72,10,7,0,15,9,21,0.00,7,,336
2010-11-18,35,34,32,25,20,14,70,57,44,30.29,30.24,30.15,10,10,10,12,5,17,0.00,8,,337
2010-11-19,37,34,32,28,24,18,70,63,52,30.23,29.99,29.84,10,8,5,25,11,33,0.00,7,,220
2010-11-20,30,26,21,18,10,7,60,48,40,30.38,30.28,30.06,10,10,10,12,7,17,0.00,2,,1
2010-11-21,48,40,33,45,33,21,93,76,60,30.29,29.98,29.71,10,6,0,17,14,25,0.05,8,,147
2010-11-22,46,42,37,43,36,30,87,82,75,29.84,29.72,29.52,10,8,2,15,6,22,0.01,8,Thunderstorm,25
2010-11-23,37,29,21,28,13,9,70,55,47,30.31,30.00,29.68,10,10,10,17,11,29,0.00,5,,298
2010-11-24,37,28,19,28,21,12,81,66,56,30.36,30.18,29.88,10,10,4,25,9,31,0.02,8,,143
2010-11-25,39,30,19,36,25,0,87,71,39,29.76,29.65,29.58,10,9,3,16,11,24,0.04,6,,237
2010-11-26,24,19,14,9,5,-2,58,53,46,29.66,29.61,29.58,10,10,10,20,13,30,0.00,6,,277
2010-11-27,30,26,23,18,15,10,69,62,55,30.08,29.94,29.70,10,10,10,13,7,21,0.00,7,,286
2010-11-28,39,28,17,32,18,9,75,66,52,30.15,30.11,30.04,10,10,8,17,5,23,0.00,1,,208
2010-11-29,44,40,37,39,34,30,87,76,66,30.05,29.89,29.63,10,9,4,20,11,28,0.26,4,,173
2010-11-30,44,38,33,41,36,27,87,80,70,29.61,29.48,29.40,10,6,1,21,12,26,0.18,8,,214